Time;durP1;ratioP1;P1;durP2;ratioP2;P2;SDS_P1;SDS_P2;PMS_P1;PMS_P2;Temp;Humidity;BMP_temperature;BMP_pressure;BME280_temperature;BME280_humidity;BME280_pressure;Samples;Min_cycle;Max_cycle;Signal;HPM_P1;HPM_P2
2022/01/20 00:02:20;;;;;;;11.45;9.00;;;-4.60;97.90;-5.20;97657.00;;;;5013119;28;87520;-60
2022/01/20 00:05:03;;;;;;;10.73;8.85;;;-4.60;98.00;-5.20;97639.00;;;;5014960;28;88407;-61
2022/01/20 00:07:45;;;;;;;12.95;9.00;;;-4.60;98.00;-5.20;97642.00;;;;5012656;28;87406;-61
2022/01/20 00:26:24;;;;;;;12.13;8.55;;;-4.50;98.00;-5.00;97636.00;;;;5020289;28;87190;-60
2022/01/20 00:28:56;;;;;;;12.23;8.68;;;-4.40;98.00;-5.00;97625.00;;;;5020708;28;88201;-60
2022/01/20 00:33:58;;;;;;;10.63;9.15;;;-4.40;98.00;-5.00;97623.00;;;;5015259;28;88475;-61
2022/01/20 00:39:06;;;;;;;12.10;9.20;;;-4.40;98.00;-5.00;97619.00;;;;5016011;28;87122;-61
2022/01/20 00:41:32;;;;;;;12.00;8.38;;;-4.40;98.00;-4.90;97626.00;;;;5036214;28;87626;-60
2022/01/20 00:43:58;;;;;;;10.98;9.10;;;-4.30;98.10;-4.90;97623.00;;;;5020886;28;87287;-61
2022/01/20 00:46:25;;;;;;;11.18;8.85;;;-4.30;98.00;-4.90;97624.00;;;;5019354;28;87140;-59
2022/01/20 00:48:52;;;;;;;10.63;8.32;;;-4.30;97.90;-4.90;97614.00;;;;5020524;28;86517;-59
2022/01/20 00:51:18;;;;;;;10.43;8.48;;;-4.30;97.90;-4.90;97617.00;;;;5019173;28;87742;-59
2022/01/20 00:53:45;;;;;;;10.60;8.95;;;-4.30;97.90;-4.80;97622.00;;;;5035145;28;88260;-59
2022/01/20 00:56:13;;;;;;;11.40;9.30;;;-4.30;97.90;-4.80;97620.00;;;;5019500;28;88216;-59
2022/01/20 00:58:40;;;;;;;11.10;8.77;;;-4.20;97.90;-4.80;97609.00;;;;5016166;28;87691;-59
2022/01/20 01:01:06;;;;;;;10.70;8.60;;;-4.20;98.00;-4.80;97617.00;;;;5017492;28;88157;-59
2022/01/20 01:03:33;;;;;;;11.52;9.23;;;-4.20;97.90;-4.80;97615.00;;;;5027218;28;87323;-59
2022/01/20 01:06:23;;;;;;;11.00;8.73;;;-4.20;98.00;-4.80;97601.00;;;;5018570;28;87521;-59
2022/01/20 01:08:48;;;;;;;12.77;8.85;;;-4.20;98.00;-4.70;97603.00;;;;5020312;28;87311;-60
2022/01/20 01:11:14;;;;;;;10.82;8.73;;;-4.20;98.00;-4.80;97605.00;;;;5023186;28;87547;-59
2022/01/20 01:13:40;;;;;;;10.77;8.98;;;-4.20;98.00;-4.70;97587.00;;;;5024353;28;87464;-59
2022/01/20 01:16:09;;;;;;;12.30;8.95;;;-4.20;98.00;-4.80;97575.00;;;;5023648;28;87604;-59
2022/01/20 01:21:30;;;;;;;12.15;9.02;;;-4.20;98.10;-4.70;97575.00;;;;5022180;28;88571;-59
2022/01/20 01:23:57;;;;;;;12.57;9.00;;;-4.10;98.10;-4.70;97575.00;;;;5005110;28;88898;-59
2022/01/20 01:26:27;;;;;;;12.50;9.27;;;-4.10;98.10;-4.70;97581.00;;;;5021772;28;87093;-59
2022/01/20 01:28:53;;;;;;;11.20;9.30;;;-4.10;98.20;-4.70;97586.00;;;;5039048;28;87019;-59
2022/01/20 01:33:58;;;;;;;10.10;8.52;;;-4.10;98.20;-4.60;97562.00;;;;5022830;28;88803;-59
2022/01/20 01:36:27;;;;;;;11.18;8.25;;;-4.10;98.10;-4.60;97576.00;;;;5022621;28;86969;-59
2022/01/20 01:38:54;;;;;;;10.15;8.35;;;-4.10;98.10;-4.60;97564.00;;;;5038507;28;86506;-59
2022/01/20 01:41:33;;;;;;;12.32;8.77;;;-4.00;98.10;-4.60;97558.00;;;;5021930;28;88178;-59
2022/01/20 01:44:05;;;;;;;10.57;8.40;;;-4.00;98.10;-4.60;97570.00;;;;5004027;28;89393;-59
2022/01/20 01:46:31;;;;;;;14.30;10.50;;;-4.00;98.10;-4.60;97563.00;;;;5022461;28;88237;-59
2022/01/20 01:48:58;;;;;;;11.82;9.23;;;-4.00;98.10;-4.50;97553.00;;;;5021623;28;88071;-59
2022/01/20 01:51:25;;;;;;;10.65;8.75;;;-4.00;98.10;-4.50;97561.00;;;;5021540;28;88672;-60
2022/01/20 01:53:52;;;;;;;11.65;9.05;;;-4.00;98.10;-4.50;97557.00;;;;5021479;28;87467;-59
2022/01/20 01:56:21;;;;;;;10.52;8.60;;;-4.00;98.10;-4.50;97551.00;;;;5021850;28;87057;-59
2022/01/20 01:58:47;;;;;;;12.55;9.43;;;-4.00;98.20;-4.50;97558.00;;;;5038758;28;87256;-59
2022/01/20 02:01:16;;;;;;;11.27;9.18;;;-4.00;98.20;-4.50;97550.00;;;;5021810;28;87528;-59
2022/01/20 02:03:57;;;;;;;10.77;8.98;;;-3.90;98.30;-4.50;97541.00;;;;5038770;28;87810;-59
2022/01/20 02:09:19;;;;;;;11.55;9.65;;;-3.90;98.30;-4.50;97552.00;;;;5021855;28;87005;-59
2022/01/20 02:20:05;;;;;;;11.82;10.05;;;-3.90;98.30;-4.50;97538.00;;;;5001953;28;87299;-59
2022/01/20 02:22:41;;;;;;;12.95;9.93;;;-3.90;98.30;-4.50;97525.00;;;;5033944;28;88753;-58
2022/01/20 02:25:32;;;;;;;13.73;9.75;;;-3.90;98.30;-4.50;97537.00;;;;5020073;28;88538;-59
2022/01/20 02:28:03;;;;;;;12.27;10.00;;;-3.90;98.30;-4.50;97529.00;;;;5037911;28;87278;-59
2022/01/20 02:30:30;;;;;;;14.20;11.00;;;-3.90;98.30;-4.50;97525.00;;;;5038426;28;86762;-59
2022/01/20 02:33:07;;;;;;;12.68;10.63;;;-3.90;98.60;-4.50;97522.00;;;;5019943;28;90544;-59
2022/01/20 02:35:44;;;;;;;14.40;11.05;;;-3.90;98.40;-4.50;97519.00;;;;5037295;28;87307;-59
2022/01/20 02:38:25;;;;;;;13.55;11.23;;;-3.90;98.50;-4.50;97514.00;;;;5016109;28;88502;-59
2022/01/20 02:46:23;;;;;;;13.77;11.98;;;-3.90;98.50;-4.50;97497.00;;;;5020202;28;87639;-59
2022/01/20 02:48:49;;;;;;;16.52;12.18;;;-3.90;98.50;-4.50;97499.00;;;;5020119;28;86915;-59
2022/01/20 02:51:15;;;;;;;13.15;11.63;;;-3.90;98.50;-4.50;97503.00;;;;5019874;28;87015;-59
2022/01/20 02:53:42;;;;;;;15.00;11.95;;;-3.90;98.50;-4.50;97494.00;;;;5019590;28;87642;-59
2022/01/20 02:56:08;;;;;;;16.67;12.52;;;-3.90;98.70;-4.50;97498.00;;;;5020266;28;87619;-59
2022/01/20 02:58:34;;;;;;;14.95;12.02;;;-3.90;98.70;-4.50;97491.00;;;;5002792;28;87592;-59
2022/01/20 03:01:01;;;;;;;19.92;13.35;;;-3.90;98.70;-4.50;97496.00;;;;5018618;28;87815;-59
2022/01/20 03:03:27;;;;;;;14.23;12.57;;;-3.90;98.80;-4.50;97488.00;;;;5002875;28;89056;-59
2022/01/20 03:05:54;;;;;;;16.27;13.18;;;-3.90;98.80;-4.50;97487.00;;;;5020319;28;88796;-59
2022/01/20 03:08:20;;;;;;;17.05;13.50;;;-3.90;98.90;-4.50;97493.00;;;;5020897;28;86908;-60
2022/01/20 03:10:46;;;;;;;15.25;12.38;;;-3.90;98.90;-4.50;97466.00;;;;5020092;28;87105;-59
2022/01/20 03:13:13;;;;;;;17.88;13.13;;;-3.90;99.00;-4.50;97488.00;;;;5020040;28;87584;-59
2022/01/20 03:15:40;;;;;;;18.23;13.85;;;-3.90;99.00;-4.50;97478.00;;;;5020105;28;87597;-58
2022/01/20 03:18:06;;;;;;;15.65;12.80;;;-3.90;99.00;-4.50;97482.00;;;;5020162;28;87012;-58
2022/01/20 03:20:33;;;;;;;15.73;12.00;;;-3.90;99.10;-4.50;97481.00;;;;5020757;28;86374;-59
2022/01/20 03:23:00;;;;;;;16.83;11.73;;;-3.90;99.10;-4.50;97467.00;;;;5019817;28;87306;-59
2022/01/20 03:25:27;;;;;;;14.85;12.18;;;-3.90;99.10;-4.50;97468.00;;;;5017138;28;87353;-59
2022/01/20 03:27:55;;;;;;;16.70;12.20;;;-3.90;99.10;-4.50;97479.00;;;;5018863;28;88243;-58
2022/01/20 03:30:21;;;;;;;15.70;12.77;;;-3.80;99.20;-4.50;97477.00;;;;5019590;28;87131;-59
2022/01/20 03:32:49;;;;;;;16.08;13.20;;;-3.90;99.10;-4.50;97473.00;;;;5019091;28;88024;-59
2022/01/20 03:35:16;;;;;;;14.93;11.90;;;-3.90;99.20;-4.40;97473.00;;;;5020252;28;87930;-58
2022/01/20 03:37:52;;;;;;;16.48;13.63;;;-3.80;99.30;-4.40;97471.00;;;;5001648;28;86983;-58
2022/01/20 03:40:20;;;;;;;14.27;12.05;;;-3.90;99.10;-4.40;97455.00;;;;5019589;28;87446;-59
2022/01/20 03:42:47;;;;;;;18.80;14.52;;;-3.80;99.20;-4.50;97450.00;;;;5019451;28;87701;-59
2022/01/20 03:45:13;;;;;;;18.60;12.68;;;-3.90;99.20;-4.40;97449.00;;;;5020008;28;87601;-59
2022/01/20 03:47:40;;;;;;;15.30;12.18;;;-3.80;99.30;-4.40;97427.00;;;;5002614;28;87337;-59
2022/01/20 03:50:10;;;;;;;15.82;13.18;;;-3.80;99.40;-4.40;97438.00;;;;5019169;28;87002;-59
2022/01/20 03:52:36;;;;;;;17.70;12.80;;;-3.80;99.40;-4.40;97442.00;;;;5017811;28;88581;-59
2022/01/20 03:55:03;;;;;;;15.32;12.27;;;-3.80;99.30;-4.40;97449.00;;;;5018793;28;88386;-59
2022/01/20 03:57:49;;;;;;;16.42;13.27;;;-3.80;99.40;-4.40;97454.00;;;;5002180;28;87219;-59
2022/01/20 04:00:29;;;;;;;18.15;13.38;;;-3.80;99.40;-4.40;97446.00;;;;5019567;28;87025;-59
2022/01/20 04:03:13;;;;;;;17.27;13.02;;;-3.80;99.30;-4.40;97446.00;;;;5032203;28;90237;-58
2022/01/20 04:05:56;;;;;;;17.48;13.30;;;-3.80;99.70;-4.40;97448.00;;;;5007252;28;87022;-58
2022/01/20 04:08:40;;;;;;;18.83;13.30;;;-3.80;99.40;-4.40;97444.00;;;;5019098;28;87090;-61
2022/01/20 04:11:18;;;;;;;15.95;12.75;;;-3.70;99.50;-4.40;97445.00;;;;5019171;28;86604;-60
2022/01/20 04:13:44;;;;;;;17.45;12.93;;;-3.80;99.50;-4.40;97445.00;;;;5019732;28;88881;-59
2022/01/20 04:17:03;;;;;;;18.45;14.50;;;-3.70;99.50;-4.30;97436.00;;;;5018701;28;87974;-58
2022/01/20 04:19:27;;;;;;;17.65;14.82;;;-3.80;99.50;-4.30;97438.00;;;;5017831;28;88027;-59
2022/01/20 04:21:54;;;;;;;20.17;13.88;;;-3.70;99.50;-4.30;97423.00;;;;5018703;28;87094;-61
2022/01/20 04:24:20;;;;;;;18.05;15.43;;;-3.80;99.50;-4.30;97442.00;;;;5017688;28;90050;-60
2022/01/20 04:26:47;;;;;;;20.92;14.55;;;-3.70;99.60;-4.30;97432.00;;;;5019500;28;87414;-59
2022/01/20 04:29:16;;;;;;;21.25;15.88;;;-3.80;99.60;-4.30;97431.00;;;;5018147;28;87152;-59
2022/01/20 04:31:44;;;;;;;18.55;15.30;;;-3.80;99.60;-4.40;97417.00;;;;5019057;28;87005;-59
2022/01/20 04:34:11;;;;;;;18.20;14.63;;;-3.80;99.70;-4.30;97412.00;;;;5001333;28;88734;-59
2022/01/20 04:36:42;;;;;;;18.05;14.93;;;-3.80;99.80;-4.30;97412.00;;;;5019308;28;87440;-59
2022/01/20 04:39:16;;;;;;;21.02;15.18;;;-3.80;99.80;-4.30;97416.00;;;;5018147;28;87253;-59
2022/01/20 04:41:43;;;;;;;19.42;15.20;;;-3.70;99.80;-4.30;97409.00;;;;5019192;28;87018;-59
2022/01/20 04:44:18;;;;;;;19.95;15.00;;;-3.70;99.80;-4.30;97417.00;;;;5018872;28;88472;-59
2022/01/20 04:47:01;;;;;;;20.95;16.48;;;-3.70;99.90;-4.30;97411.00;;;;5022753;28;89411;-59
2022/01/20 04:57:42;;;;;;;19.27;14.73;;;-3.70;99.90;-4.30;97413.00;;;;5021432;28;87467;-60
2022/01/20 05:00:10;;;;;;;18.85;14.40;;;-3.70;99.90;-4.30;97425.00;;;;5020705;28;87851;-59
2022/01/20 05:02:56;;;;;;;18.50;14.63;;;-3.70;99.90;-4.30;97420.00;;;;5020752;28;86320;-61
2022/01/20 05:05:22;;;;;;;19.77;16.23;;;-3.70;99.90;-4.30;97412.00;;;;5020478;28;87703;-61
2022/01/20 05:07:56;;;;;;;19.85;15.60;;;-3.70;99.90;-4.30;97400.00;;;;5038172;28;87507;-60
2022/01/20 05:10:23;;;;;;;20.02;15.98;;;-3.70;99.90;-4.20;97401.00;;;;5046969;27;89080;-60
2022/01/20 05:15:25;;;;;;;19.98;14.70;;;-3.70;99.90;-4.20;97403.00;;;;5020309;28;88642;-59
2022/01/20 05:17:53;;;;;;;20.55;15.50;;;-3.60;99.90;-4.20;97401.00;;;;5036902;28;88246;-59
2022/01/20 05:20:20;;;;;;;19.00;15.77;;;-3.60;99.90;-4.20;97417.00;;;;5021695;28;87058;-59
2022/01/20 05:22:46;;;;;;;21.17;14.98;;;-3.60;99.90;-4.20;97398.00;;;;5020708;28;87652;-59
2022/01/20 05:25:15;;;;;;;20.23;14.93;;;-3.60;99.90;-4.20;97401.00;;;;5019947;28;88350;-59
2022/01/20 05:27:42;;;;;;;18.40;14.73;;;-3.60;99.90;-4.20;97403.00;;;;5020931;28;88416;-59
2022/01/20 05:30:12;;;;;;;20.10;15.30;;;-3.60;99.90;-4.20;97392.00;;;;5020568;28;86934;-59
2022/01/20 05:32:41;;;;;;;19.88;15.88;;;-3.60;99.90;-4.20;97390.00;;;;5020462;28;87527;-59
2022/01/20 05:35:08;;;;;;;20.23;14.57;;;-3.60;99.90;-4.20;97385.00;;;;5053551;27;89469;-59
2022/01/20 05:37:35;;;;;;;23.73;17.30;;;-3.60;99.90;-4.20;97390.00;;;;5003237;28;90699;-59
2022/01/20 05:40:02;;;;;;;22.38;15.95;;;-3.60;99.90;-4.20;97385.00;;;;5020293;28;87052;-59
2022/01/20 05:42:29;;;;;;;20.17;15.77;;;-3.60;99.90;-4.20;97381.00;;;;5020392;28;87077;-59
2022/01/20 05:45:07;;;;;;;19.75;14.95;;;-3.60;99.90;-4.10;97382.00;;;;5017545;28;87466;-59
2022/01/20 05:47:37;;;;;;;20.48;17.05;;;-3.50;99.90;-4.10;97388.00;;;;5020061;28;87371;-59
2022/01/20 05:50:23;;;;;;;21.00;16.17;;;-3.50;99.90;-4.10;97380.00;;;;4987164;28;88101;-59
2022/01/20 05:52:51;;;;;;;22.40;16.80;;;-3.50;99.90;-4.10;97388.00;;;;5020468;28;86771;-59
2022/01/20 05:55:21;;;;;;;20.00;16.17;;;-3.50;99.90;-4.10;97383.00;;;;5019793;28;88564;-60
2022/01/20 05:57:48;;;;;;;23.95;17.35;;;-3.50;99.90;-4.10;97387.00;;;;5053450;27;86981;-58
2022/01/20 06:00:22;;;;;;;21.08;16.63;;;-3.50;99.90;-4.10;97379.00;;;;5018251;28;88444;-59
2022/01/20 06:05:41;;;;;;;21.70;17.05;;;-3.50;99.90;-4.10;97389.00;;;;5016217;28;87721;-61
2022/01/20 06:08:09;;;;;;;24.98;18.40;;;-3.50;99.90;-4.10;97380.00;;;;5019602;28;87415;-60
2022/01/20 06:10:37;;;;;;;21.48;17.73;;;-3.50;99.90;-4.10;97377.00;;;;5020740;28;87272;-60
2022/01/20 06:13:19;;;;;;;20.38;17.02;;;-3.50;99.90;-4.10;97358.00;;;;5021098;28;87155;-60
2022/01/20 06:15:46;;;;;;;22.65;18.65;;;-3.50;99.90;-4.10;97353.00;;;;5021545;28;88055;-61
2022/01/20 06:18:13;;;;;;;25.13;19.42;;;-3.50;99.90;-4.10;97345.00;;;;5035085;28;88576;-61
2022/01/20 06:20:44;;;;;;;;;;;-3.50;99.90;-4.10;97342.00;;;;5038238;28;86991;-61
2022/01/20 06:23:10;;;;;;;28.75;20.55;;;-3.50;99.90;-4.10;97343.00;;;;5021373;28;87149;-61
2022/01/20 06:25:37;;;;;;;25.10;19.65;;;-3.50;99.90;-4.10;97346.00;;;;5019163;28;88555;-59
2022/01/20 06:28:04;;;;;;;23.15;19.10;;;-3.50;99.90;-4.10;97336.00;;;;5019850;28;88228;-59
2022/01/20 06:30:32;;;;;;;26.45;19.92;;;-3.50;99.90;-4.10;97343.00;;;;5003452;28;87022;-59
2022/01/20 06:32:59;;;;;;;28.27;20.17;;;-3.50;99.90;-4.10;97339.00;;;;5019692;28;87026;-59
2022/01/20 06:35:31;;;;;;;25.65;20.35;;;-3.50;99.90;-4.10;97339.00;;;;5018928;28;89000;-58
2022/01/20 06:37:58;;;;;;;24.58;19.25;;;-3.50;99.90;-4.10;97343.00;;;;5019711;28;87994;-58
2022/01/20 06:40:24;;;;;;;26.05;21.13;;;-3.50;99.90;-4.10;97345.00;;;;5020701;28;87085;-59
2022/01/20 06:42:50;;;;;;;27.27;19.98;;;-3.50;99.90;-4.10;97344.00;;;;5020194;28;86433;-59
2022/01/20 06:45:20;;;;;;;24.73;19.52;;;-3.50;99.90;-4.00;97329.00;;;;5019883;28;87525;-59
2022/01/20 06:47:49;;;;;;;29.70;21.52;;;-3.50;99.90;-4.10;97341.00;;;;5020001;28;89304;-59
2022/01/20 06:50:16;;;;;;;30.65;21.25;;;-3.40;99.90;-4.10;97333.00;;;;5018967;28;87999;-59
2022/01/20 06:52:46;;;;;;;30.52;22.48;;;-3.40;99.90;-4.00;97345.00;;;;5018637;28;87406;-59
2022/01/20 06:55:13;;;;;;;31.80;21.75;;;-3.50;99.90;-4.00;97350.00;;;;5019314;28;87591;-59
2022/01/20 06:57:40;;;;;;;30.13;22.63;;;-3.50;99.90;-4.10;97344.00;;;;5019874;28;87449;-59
2022/01/20 07:00:33;;;;;;;29.45;20.77;;;-3.50;99.90;-4.00;97350.00;;;;5019753;28;87463;-59
2022/01/20 07:02:59;;;;;;;25.58;19.27;;;-3.40;99.90;-4.00;97344.00;;;;5016097;28;87058;-60
2022/01/20 07:05:25;;;;;;;31.90;21.05;;;-3.40;99.90;-4.00;97348.00;;;;5018819;28;87919;-59
2022/01/20 07:07:52;;;;;;;31.30;22.98;;;-3.40;99.90;-4.00;97347.00;;;;5019344;28;87306;-59
2022/01/20 07:10:22;;;;;;;26.67;21.13;;;-3.40;99.90;-4.00;97350.00;;;;5020308;28;87293;-59
2022/01/20 07:12:58;;;;;;;28.60;20.70;;;-3.40;99.90;-4.00;97341.00;;;;5018344;28;87537;-59
2022/01/20 07:15:24;;;;;;;28.90;20.65;;;-3.40;99.90;-4.00;97351.00;;;;5017745;28;88860;-59
2022/01/20 07:17:51;;;;;;;34.90;23.20;;;-3.40;99.90;-4.00;97354.00;;;;5050119;27;87531;-59
2022/01/20 07:20:20;;;;;;;27.88;21.30;;;-3.40;99.90;-4.00;97352.00;;;;5010728;28;87323;-59
2022/01/20 07:23:03;;;;;;;25.75;19.42;;;-3.40;99.90;-4.00;97342.00;;;;5045458;27;87590;-59
2022/01/20 07:25:34;;;;;;;28.33;22.23;;;-3.40;99.90;-4.00;97337.00;;;;5035293;27;88678;-59
2022/01/20 07:28:08;;;;;;;33.55;21.60;;;-3.40;99.90;-4.00;97333.00;;;;5032883;28;87309;-59
2022/01/20 07:30:37;;;;;;;29.65;21.95;;;-3.40;99.90;-4.00;97326.00;;;;5016625;28;87172;-59
2022/01/20 07:33:05;;;;;;;26.92;20.73;;;-3.40;99.90;-4.00;97324.00;;;;5019534;28;86209;-59
2022/01/20 07:35:32;;;;;;;30.60;22.10;;;-3.40;99.90;-4.00;97325.00;;;;5019396;28;87409;-59
2022/01/20 07:37:58;;;;;;;29.85;21.35;;;-3.40;99.90;-4.00;97318.00;;;;5019909;28;88509;-59
2022/01/20 07:40:25;;;;;;;29.15;21.05;;;-3.40;99.90;-3.90;97328.00;;;;5019303;28;88287;-59
2022/01/20 07:42:51;;;;;;;27.10;18.70;;;-3.40;99.90;-3.90;97327.00;;;;5019475;28;87008;-59
2022/01/20 07:45:21;;;;;;;23.05;18.63;;;-3.40;99.90;-3.90;97311.00;;;;5020025;28;88481;-59
2022/01/20 07:48:08;;;;;;;30.73;20.52;;;-3.30;99.90;-3.80;97331.00;;;;5007992;28;87373;-59
2022/01/20 07:50:36;;;;;;;25.30;19.58;;;-3.30;99.90;-3.80;97322.00;;;;5018999;28;87509;-60
2022/01/20 07:53:03;;;;;;;26.15;20.13;;;-3.20;99.90;-3.80;97326.00;;;;5018459;28;87490;-59
2022/01/20 07:55:30;;;;;;;23.85;18.40;;;-3.20;99.90;-3.80;97329.00;;;;5018599;28;87693;-59
2022/01/20 07:57:57;;;;;;;27.52;18.90;;;-3.20;99.90;-3.70;97338.00;;;;5018999;28;89683;-60
2022/01/20 08:00:27;;;;;;;27.80;20.97;;;-3.20;99.70;-3.80;97323.00;;;;5019763;28;87556;-60
2022/01/20 08:02:56;;;;;;;26.10;19.13;;;-3.20;99.60;-3.70;97324.00;;;;5003089;28;87319;-60
2022/01/20 08:05:34;;;;;;;24.52;19.80;;;-3.20;99.70;-3.70;97328.00;;;;5035168;28;88616;-60
2022/01/20 08:08:00;;;;;;;28.95;20.98;;;-3.10;99.80;-3.60;97336.00;;;;5019074;28;88241;-60
2022/01/20 08:10:27;;;;;;;26.02;19.55;;;-3.10;99.80;-3.60;97331.00;;;;5020040;28;87483;-60
2022/01/20 08:12:53;;;;;;;24.65;18.77;;;-3.10;99.70;-3.60;97329.00;;;;5019033;28;87622;-60
2022/01/20 08:15:24;;;;;;;23.93;17.37;;;-3.00;99.50;-3.60;97331.00;;;;5019334;28;87718;-60
2022/01/20 08:18:11;;;;;;;24.02;18.92;;;-3.10;99.50;-3.60;97308.00;;;;5018980;28;87300;-58
2022/01/20 08:20:37;;;;;;;24.67;18.48;;;-3.10;99.50;-3.60;97317.00;;;;5018213;28;87243;-59
2022/01/20 08:23:06;;;;;;;23.52;17.73;;;-3.10;99.50;-3.60;97321.00;;;;5035382;27;87227;-58
2022/01/20 08:25:34;;;;;;;22.73;17.90;;;-3.00;99.50;-3.60;97317.00;;;;5037299;27;88325;-60
2022/01/20 08:28:01;;;;;;;24.70;18.40;;;-3.00;99.40;-3.60;97290.00;;;;5018640;28;87891;-59
2022/01/20 08:30:33;;;;;;;22.52;16.70;;;-3.10;99.40;-3.60;97309.00;;;;5018674;28;89008;-58
2022/01/20 08:33:00;;;;;;;22.92;16.92;;;-3.10;99.50;-3.60;97312.00;;;;5018523;28;87263;-60
2022/01/20 08:35:41;;;;;;;23.52;17.58;;;-3.10;99.50;-3.50;97309.00;;;;5012220;28;87465;-60
2022/01/20 08:38:12;;;;;;;24.05;17.92;;;-3.00;99.50;-3.60;97286.00;;;;5018434;28;87771;-60
2022/01/20 08:40:40;;;;;;;25.48;18.42;;;-3.10;99.40;-3.60;97295.00;;;;5018771;28;86958;-60
2022/01/20 08:43:07;;;;;;;23.08;18.20;;;-3.10;99.50;-3.60;97285.00;;;;5001892;28;87506;-60
2022/01/20 08:45:38;;;;;;;24.73;18.75;;;-3.10;99.60;-3.60;97281.00;;;;5017926;28;87706;-60
2022/01/20 08:48:08;;;;;;;25.20;17.85;;;-3.10;99.50;-3.60;97276.00;;;;5018459;28;89117;-60
2022/01/20 08:50:53;;;;;;;23.00;17.85;;;-3.10;99.60;-3.60;97285.00;;;;5019236;28;86981;-60
2022/01/20 08:53:19;;;;;;;25.13;18.45;;;-3.10;99.60;-3.60;97284.00;;;;5017397;28;87170;-60
2022/01/20 08:55:45;;;;;;;23.63;17.33;;;-3.10;99.50;-3.50;97272.00;;;;5017208;28;89102;-60
2022/01/20 08:58:14;;;;;;;22.80;17.50;;;-3.00;99.60;-3.50;97268.00;;;;5019312;28;89423;-60
2022/01/20 09:00:41;;;;;;;21.58;17.83;;;-3.00;99.60;-3.50;97266.00;;;;5018225;28;86891;-60
2022/01/20 09:03:09;;;;;;;26.80;18.25;;;-2.90;99.50;-3.50;97260.00;;;;5018522;28;87039;-59
2022/01/20 09:05:36;;;;;;;22.65;17.45;;;-3.00;99.40;-3.50;97247.00;;;;5017546;28;88464;-60
2022/01/20 09:08:12;;;;;;;22.65;17.42;;;-3.00;99.40;-3.50;97247.00;;;;5002179;28;89753;-60
2022/01/20 09:10:47;;;;;;;20.83;17.20;;;-3.00;99.40;-3.50;97244.00;;;;5018448;28;87323;-60
2022/01/20 09:16:03;;;;;;;25.38;17.48;;;-3.00;99.50;-3.50;97242.00;;;;5018156;28;88225;-60
2022/01/20 09:18:49;;;;;;;18.05;16.15;;;-3.00;99.50;-3.50;97246.00;;;;5018118;28;87557;-61
2022/01/20 09:21:21;;;;;;;20.85;17.60;;;-2.90;99.50;-3.50;97241.00;;;;5017591;28;87945;-61
2022/01/20 09:23:48;;;;;;;21.88;18.70;;;-2.90;99.50;-3.50;97239.00;;;;5017952;28;87048;-59
2022/01/20 09:26:16;;;;;;;22.75;18.73;;;-3.00;99.40;-3.40;97236.00;;;;5017490;28;87474;-59
2022/01/20 09:28:43;;;;;;;21.02;17.15;;;-2.90;99.50;-3.50;97228.00;;;;5017781;28;88768;-59
2022/01/20 09:31:14;;;;;;;21.60;17.60;;;-2.90;99.50;-3.40;97220.00;;;;5050444;27;87167;-59
2022/01/20 09:33:41;;;;;;;19.38;16.83;;;-2.90;99.80;-3.50;97221.00;;;;5037788;28;87057;-60
2022/01/20 09:36:12;;;;;;;23.40;17.58;;;-2.90;99.50;-3.40;97217.00;;;;5021043;28;87503;-60
2022/01/20 09:38:39;;;;;;;;;;;-2.90;99.50;-3.40;97227.00;;;;5022840;28;88674;-60
2022/01/20 09:41:12;;;;;;;24.17;17.35;;;-2.90;99.50;-3.40;97207.00;;;;5022684;28;86982;-59
2022/01/20 09:43:38;;;;;;;20.60;16.77;;;-2.90;99.50;-3.40;97214.00;;;;5021273;28;86889;-59
2022/01/20 09:46:04;;;;;;;23.23;17.45;;;-2.90;99.40;-3.40;97211.00;;;;5021354;28;88381;-59
2022/01/20 09:48:35;;;;;;;24.73;18.35;;;-2.90;99.50;-3.40;97193.00;;;;5020716;28;87129;-59
2022/01/20 09:51:26;;;;;;;21.00;16.67;;;-2.90;99.40;-3.40;97198.00;;;;5021618;28;86961;-59
2022/01/20 09:54:11;;;;;;;21.30;16.70;;;-2.90;99.50;-3.50;97193.00;;;;5005580;28;87042;-59
2022/01/20 09:56:57;;;;;;;24.58;17.10;;;-3.00;99.40;-3.50;97206.00;;;;5021580;28;87607;-60
2022/01/20 09:59:25;;;;;;;20.45;15.10;;;-3.00;99.50;-3.50;97196.00;;;;5020648;28;87408;-59
2022/01/20 10:01:57;;;;;;;17.92;16.02;;;-2.90;99.60;-3.50;97182.00;;;;5022102;28;86938;-59
2022/01/20 10:04:35;;;;;;;17.75;14.25;;;-3.00;99.50;-3.50;97195.00;;;;5006389;28;86304;-59
2022/01/20 10:07:17;;;;;;;21.23;16.77;;;-2.90;99.50;-3.40;97198.00;;;;5016216;28;87879;-59
2022/01/20 10:09:52;;;;;;;19.63;14.93;;;-2.90;99.50;-3.40;97184.00;;;;5021165;28;87530;-60
2022/01/20 10:12:30;;;;;;;19.73;15.05;;;-2.90;99.50;-3.40;97207.00;;;;5021229;28;88156;-58
2022/01/20 10:15:00;;;;;;;19.38;15.27;;;-2.90;99.40;-3.40;97205.00;;;;5022044;28;87097;-60
2022/01/20 10:18:14;;;;;;;17.88;14.65;;;-2.90;99.40;-3.40;97189.00;;;;5005675;28;87672;-59
2022/01/20 10:21:04;;;;;;;18.10;14.77;;;-2.90;99.30;-3.40;97185.00;;;;5020455;28;87985;-60
2022/01/20 10:23:48;;;;;;;21.08;14.95;;;-2.90;99.30;-3.40;97184.00;;;;5019873;28;86973;-60
2022/01/20 10:26:37;;;;;;;17.80;14.73;;;-2.90;99.30;-3.40;97183.00;;;;5019461;28;87300;-60
2022/01/20 10:29:08;;;;;;;16.75;14.13;;;-2.90;99.30;-3.40;97181.00;;;;5020501;28;87483;-60
2022/01/20 10:31:45;;;;;;;17.40;13.55;;;-2.90;99.40;-3.50;97173.00;;;;5014809;28;87455;-60
2022/01/20 10:34:35;;;;;;;15.93;12.82;;;-2.90;99.40;-3.50;97184.00;;;;5012917;28;87857;-60
2022/01/20 10:37:16;;;;;;;16.10;13.68;;;-2.90;99.40;-3.40;97180.00;;;;5016020;28;87213;-60
2022/01/20 10:39:51;;;;;;;17.20;12.95;;;-2.90;99.30;-3.40;97176.00;;;;5046350;27;88751;-60
2022/01/20 10:42:24;;;;;;;14.93;12.60;;;-3.00;99.20;-3.40;97188.00;;;;5013914;28;88324;-60
2022/01/20 10:44:57;;;;;;;16.85;12.38;;;-2.90;99.30;-3.40;97183.00;;;;5045335;27;87023;-60
2022/01/20 10:47:28;;;;;;;15.70;13.52;;;-2.90;99.30;-3.40;97187.00;;;;5014546;28;87500;-60
2022/01/20 10:50:08;;;;;;;15.88;12.07;;;-2.80;99.40;-3.30;97183.00;;;;5042962;27;87789;-60
2022/01/20 10:52:37;;;;;;;14.50;12.52;;;-2.80;99.20;-3.30;97187.00;;;;5017183;28;87914;-60
2022/01/20 10:55:07;;;;;;;14.63;12.10;;;-2.80;99.10;-3.40;97185.00;;;;5048175;27;87151;-60
2022/01/20 10:57:41;;;;;;;16.85;13.20;;;-2.90;99.00;-3.40;97195.00;;;;5013286;28;86247;-61
2022/01/20 11:00:17;;;;;;;17.52;12.52;;;-2.90;99.20;-3.40;97183.00;;;;5013692;28;87517;-62
2022/01/20 11:02:58;;;;;;;18.75;13.25;;;-2.80;99.20;-3.30;97166.00;;;;5013029;28;87594;-61
2022/01/20 11:05:29;;;;;;;15.40;12.50;;;-2.80;99.30;-3.40;97173.00;;;;4993378;28;88726;-60
2022/01/20 11:07:58;;;;;;;17.17;12.77;;;-2.90;99.20;-3.40;97180.00;;;;5013773;28;87996;-60
2022/01/20 11:10:24;;;;;;;15.57;12.80;;;-2.90;99.30;-3.40;97171.00;;;;5049126;27;89290;-60
2022/01/20 11:13:16;;;;;;;15.50;13.05;;;-2.90;99.40;-3.40;97166.00;;;;5010840;28;87441;-60
2022/01/20 11:15:48;;;;;;;16.23;12.70;;;-2.90;99.50;-3.40;97165.00;;;;5027375;28;87019;-61
2022/01/20 11:18:15;;;;;;;15.52;12.68;;;-2.90;99.50;-3.40;97168.00;;;;5016311;28;87228;-60
2022/01/20 11:20:48;;;;;;;15.18;13.23;;;-2.90;99.50;-3.30;97172.00;;;;4991902;28;88726;-61
2022/01/20 11:23:17;;;;;;;16.60;13.05;;;-2.80;99.50;-3.30;97159.00;;;;5018616;28;87267;-62
2022/01/20 11:26:04;;;;;;;16.02;13.25;;;-2.80;99.40;-3.30;97170.00;;;;5000589;28;87442;-62
2022/01/20 11:29:00;;;;;;;15.48;13.30;;;-2.70;99.50;-3.20;97182.00;;;;5021106;27;87039;-60
2022/01/20 11:31:45;;;;;;;17.48;14.02;;;-2.70;99.50;-3.30;97159.00;;;;5014071;28;88991;-61
2022/01/20 11:34:32;;;;;;;17.73;15.20;;;-2.80;99.30;-3.30;97166.00;;;;5042830;27;89597;-62
2022/01/20 11:37:10;;;;;;;16.92;14.23;;;-2.80;99.40;-3.40;97164.00;;;;5012151;28;87959;-62
2022/01/20 11:39:37;;;;;;;16.80;14.27;;;-2.80;99.50;-3.30;97161.00;;;;5012165;28;87650;-61
2022/01/20 11:42:03;;;;;;;17.75;14.88;;;-2.80;99.50;-3.40;97169.00;;;;5013996;28;89073;-61
2022/01/20 11:44:34;;;;;;;17.65;14.93;;;-2.80;99.40;-3.30;97165.00;;;;5017504;28;87358;-62
2022/01/20 11:47:07;;;;;;;16.13;14.07;;;-2.80;99.40;-3.50;97164.00;;;;5005366;28;86817;-62
2022/01/20 11:49:37;;;;;;;18.00;14.80;;;-2.90;99.40;-3.40;97166.00;;;;5008171;28;86383;-62
2022/01/20 11:52:05;;;;;;;17.65;14.50;;;-2.90;99.50;-3.40;97151.00;;;;5019773;28;88768;-62
2022/01/20 11:54:37;;;;;;;16.08;13.75;;;-2.90;99.40;-3.40;97156.00;;;;5018328;28;88835;-62
2022/01/20 11:57:14;;;;;;;16.30;14.02;;;-2.90;99.40;-3.40;97147.00;;;;5001857;28;87992;-62
2022/01/20 11:59:54;;;;;;;16.17;14.40;;;-2.90;99.40;-3.40;97141.00;;;;5020210;28;87379;-60
2022/01/20 12:02:36;;;;;;;16.80;14.63;;;-2.90;99.30;-3.40;97136.00;;;;5020084;28;88342;-60